Wendover Airport Wendover US
ICAO: KENV
IATA: ENV
Category: Medium
Scheduled Services: No

Elevation: 4237 ft
TransAlt. 18000 ft.

Airport Communications:
AWOS 3:135.075
CEDAR CITY RDO:112.3
CTAF/UNICOM:122.8

KENV Zoom In..

If you have problems with the map follow the link
https://www.worldairports.se/pages/airport.php?
ICAO=KENV

Runways:

(A) RW 08 length 8000 ft width 150 ft
---- / hdg 74

(B) RW 12 length 8001 ft width 100 ft
---- / hdg 119

(C) RW 26 length 8000 ft width 150 ft
---- / hdg 254

(D) RW 30 length 8001 ft width 100 ft
---- / hdg 299

Location; KENV
Day. 17 / Time. 21.56 Zulu
* Altimeter: 30.22
* Temperature: 04° c. 39.2°f.
* Wind from: 310° Speed 10 kn with Gusts up to 21 kn.
Dewpoint: -10° c.
Visibility: 10 Statute Miles.
Clouds: Broken 6000 ft.
Clouds: Broken 8000 ft.

KENV 172156Z AUTO 31010G21KT 10SM BKN060 BKN080 04/M10 A3022 RMK AO2 SLP248 T00441100


Wind From 310°
Speed 10 kn.

 
 
jpsmedia worldairports.se 2020   terms of use